Strona główna
METAR-TAF:

METAR-TAF

Lotnisko :

Port lotniczy Rodez-Marcillac

Rodez, Francja

Szerokość geograficzna: 44-24N, Długość geograficzna: 002-29E, wysokość: 581 m

Aktualna obserwacja pogody

Raport powstał 21 minut temu, godzina 17:30 UTC
Wiatr 4 kt z kierunków zmiennych
Temperatura 27°C
Wilgotność 51%
Ciśnienie 1012 hPa
Widzialność 10 km lub więcej

METAR: LFCR 251730Z AUTO VRB04KT 9999 ///TCU 27/16 Q1012 BECMG NSC

czas: 19:51 (17:51 UTC)

Prognoza

Raport powstał 51 minut temu, godzina 17:00 UTC
Prognoza ważna od 25 godzina 18 UTC do 26 godzina 18 UTC
Wiatr 3 kt z kierunków zmiennych
Widzialność 10 km lub więcej
Brak chmur poniżej 1500 m i brak chmur cumulonimbus
Prawdopodobieństwo 40% :
Przejściowo
od 25 godzina 19 UTC do 25 godzina 24 UTC
Wiatr 10 kt od południowy wschód

TAF: LFCR 251700Z 2518/2618 VRB03KT CAVOK PROB40 TEMPO 2519/2524 14010KT

Obserwacja i prognoza pogody dla ponad 4000 lotnisk (raport METAR i TAF).

Dostępne stacje oznaczono żółtymi i czerwonymi punktami na mapie.

Najedź kursorem aby zobaczyć nazwę stacji.

Kliknij aby zobaczyć obserwacje i prognozy pogody.

Aby zmienić mapę: kliknij na zielony przycisk z czarnym krzyżykiem, aby powiększyć; na zielony przycisk z myślnikiem, aby pomniejszyć; na zielone strzałki, aby przejść do map sąsiednich.


METAR-TAF: